地図

経路データ

SID SEASON NUMBER BASIN SUBBASIN NAME ISO_TIME NATURE LAT LON WMO_WIND WMO_PRES WMO_AGENCY TRACK_TYPE DIST2LAND LANDFALL IFLAG USA_AGENCY USA_ATCF_ID USA_LAT USA_LON USA_RECORD USA_STATUS USA_WIND USA_PRES USA_SSHS USA_R34_NE USA_R34_SE USA_R34_SW USA_R34_NW USA_R50_NE USA_R50_SE USA_R50_SW USA_R50_NW USA_R64_NE USA_R64_SE USA_R64_SW USA_R64_NW USA_POCI USA_ROCI USA_RMW USA_EYE TOKYO_LAT TOKYO_LON TOKYO_GRADE TOKYO_WIND TOKYO_PRES TOKYO_R50_DIR TOKYO_R50_LONG TOKYO_R50_SHORT TOKYO_R30_DIR TOKYO_R30_LONG TOKYO_R30_SHORT TOKYO_LAND CMA_LAT CMA_LON CMA_CAT CMA_WIND CMA_PRES HKO_LAT HKO_LON HKO_CAT HKO_WIND HKO_PRES NEWDELHI_LAT NEWDELHI_LON NEWDELHI_GRADE NEWDELHI_WIND NEWDELHI_PRES NEWDELHI_CI NEWDELHI_DP NEWDELHI_POCI REUNION_LAT REUNION_LON REUNION_TYPE REUNION_WIND REUNION_PRES REUNION_TNUM REUNION_CI REUNION_RMW REUNION_R34_NE REUNION_R34_SE REUNION_R34_SW REUNION_R34_NW REUNION_R50_NE REUNION_R50_SE REUNION_R50_SW REUNION_R50_NW REUNION_R64_NE REUNION_R64_SE REUNION_R64_SW REUNION_R64_NW BOM_LAT BOM_LON BOM_TYPE BOM_WIND BOM_PRES BOM_TNUM BOM_CI BOM_RMW BOM_R34_NE BOM_R34_SE BOM_R34_SW BOM_R34_NW BOM_R50_NE BOM_R50_SE BOM_R50_SW BOM_R50_NW BOM_R64_NE BOM_R64_SE BOM_R64_SW BOM_R64_NW BOM_ROCI BOM_POCI BOM_EYE BOM_POS_METHOD BOM_PRES_METHOD NADI_LAT NADI_LON NADI_CAT NADI_WIND NADI_PRES WELLINGTON_LAT WELLINGTON_LON WELLINGTON_WIND WELLINGTON_PRES DS824_LAT DS824_LON DS824_STAGE DS824_WIND DS824_PRES TD9636_LAT TD9636_LON TD9636_STAGE TD9636_WIND TD9636_PRES TD9635_LAT TD9635_LON TD9635_WIND TD9635_PRES TD9635_ROCI NEUMANN_LAT NEUMANN_LON NEUMANN_CLASS NEUMANN_WIND NEUMANN_PRES MLC_LAT MLC_LON MLC_CLASS MLC_WIND MLC_PRES USA_GUST BOM_GUST BOM_GUST_PER REUNION_GUST REUNION_GUST_PER USA_SEAHGT USA_SEARAD_NE USA_SEARAD_SE USA_SEARAD_SW USA_SEARAD_NW STORM_SPEED STORM_DIR
1892172N21275 1892 21 NA CS NOT_NAMED 1892-06-20 00:00:00 TS 21.3000 -85.1000 main 63 59 _____________O -1 21.3000 -85.1000 TD 30 8 303
1892172N21275 1892 21 NA CS NOT_NAMED 1892-06-20 03:00:00 TS 21.5126 -85.4497 main 60 60 _____________P -1 21.5126 -85.4497 TD 30 8 302
1892172N21275 1892 21 NA CS NOT_NAMED 1892-06-20 06:00:00 TS 21.7000 -85.8000 main 85 85 _____________O -1 21.7000 -85.8000 TD 30 7 297
1892172N21275 1892 21 NA GM NOT_NAMED 1892-06-20 09:00:00 TS 21.8499 -86.1502 main 83 76 _____________P -1 21.8499 -86.1502 TD 30 7 295
1892172N21275 1892 21 NA GM NOT_NAMED 1892-06-20 12:00:00 TS 22.0000 -86.5000 main 76 69 _____________O -1 22.0000 -86.5000 TD 30 7 298
1892172N21275 1892 21 NA GM NOT_NAMED 1892-06-20 15:00:00 TS 22.1999 -86.8500 main 80 78 _____________P -1 22.1999 -86.8500 TD 30 8 302
1892172N21275 1892 21 NA GM NOT_NAMED 1892-06-20 18:00:00 TS 22.4000 -87.2000 main 101 101 _____________O -1 22.4000 -87.2000 TD 30 7 298
1892172N21275 1892 21 NA GM NOT_NAMED 1892-06-20 21:00:00 TS 22.5499 -87.5502 main 112 112 _____________P -1 22.5499 -87.5502 TD 30 7 295
1892172N21275 1892 21 NA GM NOT_NAMED 1892-06-21 00:00:00 TS 22.7000 -87.9000 main 134 134 _____________O -1 22.7000 -87.9000 TD 30 7 298
1892172N21275 1892 21 NA GM NOT_NAMED 1892-06-21 03:00:00 TS 22.9000 -88.2575 main 156 156 _____________P -1 22.9000 -88.2575 TD 30 8 302
1892172N21275 1892 21 NA GM NOT_NAMED 1892-06-21 06:00:00 TS 23.1000 -88.6000 main 178 178 _____________O -1 23.1000 -88.6000 TD 30 7 301
1892172N21275 1892 21 NA GM NOT_NAMED 1892-06-21 09:00:00 TS 23.2497 -88.8853 main 192 192 _____________P -1 23.2497 -88.8853 TD 30 6 299
1892172N21275 1892 21 NA GM NOT_NAMED 1892-06-21 12:00:00 TS 23.4000 -89.2000 main 221 221 _____________O -1 23.4000 -89.2000 TD 30 8 297
1892172N21275 1892 21 NA GM NOT_NAMED 1892-06-21 15:00:00 TS 23.5925 -89.6275 main 256 256 _____________P -1 23.5925 -89.6275 TD 32 9 296
1892172N21275 1892 21 NA GM NOT_NAMED 1892-06-21 18:00:00 TS 23.8000 -90.1000 main 291 291 _____________O -1 23.8000 -90.1000 TS 35 9 296
1892172N21275 1892 21 NA GM NOT_NAMED 1892-06-21 21:00:00 TS 23.9999 -90.5501 main 321 321 _____________P -1 23.9999 -90.5501 TS 35 9 296
1892172N21275 1892 21 NA GM NOT_NAMED 1892-06-22 00:00:00 TS 24.2000 -91.0000 main 353 353 _____________O -1 24.2000 -91.0000 TS 35 9 296
1892172N21275 1892 21 NA GM NOT_NAMED 1892-06-22 03:00:00 TS 24.4074 -91.4575 main 388 388 _____________P -1 24.4074 -91.4575 TS 35 9 296
1892172N21275 1892 21 NA GM NOT_NAMED 1892-06-22 06:00:00 TS 24.6000 -91.9000 main 424 424 _____________O -1 24.6000 -91.9000 TS 35 9 294
1892172N21275 1892 21 NA GM NOT_NAMED 1892-06-22 09:00:00 TS 24.7574 -92.3226 main 461 458 _____________P -1 24.7574 -92.3226 TS 35 8 292
1892172N21275 1892 21 NA GM NOT_NAMED 1892-06-22 12:00:00 TS 24.9000 -92.7000 main 458 426 _____________O -1 24.9000 -92.7000 TS 35 7 295
1892172N21275 1892 21 NA GM NOT_NAMED 1892-06-22 15:00:00 TS 25.0498 -93.0077 main 426 391 _____________P -1 25.0498 -93.0077 TS 35 6 299
1892172N21275 1892 21 NA GM NOT_NAMED 1892-06-22 18:00:00 TS 25.2000 -93.3000 main 391 359 _____________O -1 25.2000 -93.3000 TS 35 7 297
1892172N21275 1892 21 NA GM NOT_NAMED 1892-06-22 21:00:00 TS 25.3500 -93.6500 main 346 315 _____________P -1 25.3500 -93.6500 TS 35 7 295
1892172N21275 1892 21 NA GM NOT_NAMED 1892-06-23 00:00:00 TS 25.5000 -94.0000 main 315 283 _____________O -1 25.5000 -94.0000 TS 35 7 297
1892172N21275 1892 21 NA GM NOT_NAMED 1892-06-23 03:00:00 TS 25.6574 -94.3075 main 281 250 _____________P -1 25.6574 -94.3075 TS 35 6 299
1892172N21275 1892 21 NA GM NOT_NAMED 1892-06-23 06:00:00 TS 25.8000 -94.6000 main 250 220 _____________O -1 25.8000 -94.6000 TS 35 6 296
1892172N21275 1892 21 NA GM NOT_NAMED 1892-06-23 09:00:00 TS 25.9073 -94.8777 main 220 189 _____________P -1 25.9073 -94.8777 TS 35 6 290
1892172N21275 1892 21 NA GM NOT_NAMED 1892-06-23 12:00:00 TS 26.0000 -95.2000 main 189 150 _____________O -1 26.0000 -95.2000 TS 35 7 286
1892172N21275 1892 21 NA GM NOT_NAMED 1892-06-23 15:00:00 TS 26.1001 -95.6350 main 150 102 _____________P -1 26.1001 -95.6350 TS 32 8 284
1892172N21275 1892 21 NA GM NOT_NAMED 1892-06-23 18:00:00 TS 26.2000 -96.1000 main 102 68 _____________O -1 26.2000 -96.1000 TD 30 8 284
1892172N21275 1892 21 NA GM NOT_NAMED 1892-06-23 21:00:00 TS 26.2998 -96.5076 main 68 41 _____________P -1 26.2998 -96.5076 TD 30 7 286
1892172N21275 1892 21 NA GM NOT_NAMED 1892-06-24 00:00:00 TS 26.4000 -96.9000 main 41 9 _____________O -1 26.4000 -96.9000 TD 30 7 286
1892172N21275 1892 21 NA GM NOT_NAMED 1892-06-24 03:00:00 TS 26.4999 -97.3001 main 9 0 _____________P -1 26.4999 -97.3001 TD 30 7 286
1892172N21275 1892 21 NA NA NOT_NAMED 1892-06-24 06:00:00 TS 26.6000 -97.7000 main 0 0 _____________O -1 26.6000 -97.7000 TD 30 7 286
1892172N21275 1892 21 NA NA NOT_NAMED 1892-06-24 09:00:00 TS 26.7002 -98.0999 main 0 0 _____________P -1 26.7002 -98.0999 TD 30 7 286
1892172N21275 1892 21 NA NA NOT_NAMED 1892-06-24 12:00:00 TS 26.8000 -98.5000 main 0 _____________O -1 26.8000 -98.5000 TD 30 7 286

IBTrACS Databaseについて

本データベースは、米国NOAAが公開する1842年以降の世界の熱帯低気圧のベストトラックデータアーカイブInternational Best Track Archive for Climate Stewardship (IBTrACS)を、ウェブで閲覧しやすい形式に変換したものです。

最終更新日:2021-10-21